createdAt,value
2018-07-01T00:02:09.657Z,1.47
2018-07-01T00:04:37.498Z,1.00
2018-07-01T00:07:05.359Z,1.40
2018-07-01T00:09:33.077Z,1.20
2018-07-01T00:12:00.821Z,1.20
2018-07-01T00:14:28.648Z,1.30
2018-07-01T00:16:56.352Z,1.40
2018-07-01T00:19:24.159Z,1.10
2018-07-01T00:21:51.891Z,1.07
2018-07-01T00:24:19.702Z,1.27
2018-07-01T00:26:47.400Z,1.40
2018-07-01T00:29:15.148Z,1.10
2018-07-01T00:31:42.881Z,1.40
2018-07-01T00:34:10.597Z,1.13
2018-07-01T00:36:38.377Z,1.40
2018-07-01T00:39:08.802Z,1.50
2018-07-01T00:41:36.795Z,1.30
2018-07-01T00:44:04.875Z,1.20
2018-07-01T00:46:32.738Z,1.20
2018-07-01T00:49:00.441Z,0.90
2018-07-01T00:51:28.162Z,1.20
2018-07-01T00:53:55.957Z,1.20
2018-07-01T00:56:23.713Z,1.80
2018-07-01T00:58:51.658Z,1.30
2018-07-01T01:01:19.486Z,1.27
2018-07-01T01:03:47.295Z,1.33
2018-07-01T01:06:15.040Z,1.23
2018-07-01T01:08:42.777Z,1.30
2018-07-01T01:11:10.687Z,1.30
2018-07-01T01:13:38.494Z,1.10
2018-07-01T01:16:06.649Z,1.30
2018-07-01T01:18:34.748Z,1.00
2018-07-01T01:21:02.619Z,1.13
2018-07-01T01:23:30.359Z,1.23
2018-07-01T01:25:58.124Z,1.00
2018-07-01T01:28:26.030Z,1.10
2018-07-01T01:30:53.783Z,1.27
2018-07-01T01:33:21.599Z,1.70
2018-07-01T01:35:49.372Z,0.90
2018-07-01T01:38:17.596Z,1.17
2018-07-01T01:40:52.409Z,1.23
2018-07-01T01:43:24.617Z,1.50
2018-07-01T01:45:56.625Z,1.20
2018-07-01T01:48:30.235Z,1.07
2018-07-01T01:51:11.354Z,1.50
2018-07-01T01:53:44.698Z,1.30
2018-07-01T01:56:17.196Z,1.47
2018-07-01T01:58:49.449Z,1.60
2018-07-01T02:01:36.458Z,1.70
2018-07-01T02:05:08.840Z,1.20
2018-07-01T02:07:47.336Z,1.40
2018-07-01T02:10:15.203Z,1.60
2018-07-01T02:12:42.978Z,1.50
2018-07-01T02:15:14.494Z,1.80
2018-07-01T02:17:44.785Z,1.70
2018-07-01T02:20:13.245Z,1.30
2018-07-01T02:22:48.730Z,1.40
2018-07-01T02:25:20.199Z,1.53
2018-07-01T02:27:48.188Z,1.53
2018-07-01T02:30:15.957Z,1.20
2018-07-01T02:32:44.010Z,0.50
2018-07-01T02:35:11.901Z,1.37
2018-07-01T02:37:39.558Z,1.60
2018-07-01T02:40:07.577Z,1.33
2018-07-01T02:42:35.510Z,1.50
2018-07-01T02:45:03.846Z,1.10
2018-07-01T02:47:31.597Z,1.37
2018-07-01T02:49:59.321Z,1.33
2018-07-01T02:52:27.091Z,1.10
2018-07-01T02:54:54.809Z,1.40
2018-07-01T02:57:22.657Z,1.57
2018-07-01T02:59:50.427Z,1.47
2018-07-01T03:02:18.239Z,1.93
2018-07-01T03:04:46.225Z,1.47
2018-07-01T03:07:13.997Z,1.57
2018-07-01T03:09:41.694Z,1.37
2018-07-01T03:12:09.491Z,1.60
2018-07-01T03:14:37.188Z,1.40
2018-07-01T03:17:05.050Z,1.23
2018-07-01T03:19:32.855Z,1.53
2018-07-01T03:22:00.833Z,1.50
2018-07-01T03:24:28.565Z,1.47
2018-07-01T03:26:56.319Z,1.57
2018-07-01T03:29:24.031Z,1.70
2018-07-01T03:31:51.829Z,1.37
2018-07-01T03:34:19.596Z,1.47
2018-07-01T03:36:47.410Z,1.40
2018-07-01T03:39:15.176Z,1.57
2018-07-01T03:41:42.927Z,1.43
2018-07-01T03:44:10.690Z,1.37
2018-07-01T03:46:38.441Z,1.70
2018-07-01T03:49:06.390Z,1.50
2018-07-01T03:51:34.155Z,1.60
2018-07-01T03:54:01.986Z,1.43
2018-07-01T03:56:29.713Z,1.40
2018-07-01T03:58:57.459Z,1.83
2018-07-01T04:01:25.214Z,1.47
2018-07-01T04:03:52.945Z,1.37
2018-07-01T04:06:20.723Z,1.60
2018-07-01T04:08:48.481Z,1.23
2018-07-01T04:11:16.545Z,1.63
2018-07-01T04:13:44.313Z,1.13
2018-07-01T04:16:12.020Z,0.90
2018-07-01T04:18:39.836Z,1.70
2018-07-01T04:21:07.639Z,1.40
2018-07-01T04:23:35.422Z,1.30
2018-07-01T04:26:03.170Z,1.30
2018-07-01T04:28:30.897Z,1.30
2018-07-01T04:30:58.699Z,1.60
2018-07-01T04:33:26.434Z,1.47
2018-07-01T04:35:54.323Z,1.40
2018-07-01T04:38:22.477Z,1.40
2018-07-01T04:40:50.211Z,0.93
2018-07-01T04:43:17.928Z,0.77
2018-07-01T04:45:45.707Z,0.83
2018-07-01T04:48:13.510Z,1.27
2018-07-01T04:50:41.211Z,1.30
2018-07-01T04:53:09.006Z,1.30
2018-07-01T04:55:36.740Z,1.60
2018-07-01T04:58:04.946Z,1.57
2018-07-01T05:00:32.674Z,1.33
2018-07-01T05:03:00.509Z,1.43
2018-07-01T05:05:28.378Z,1.57
2018-07-01T05:07:56.182Z,1.13
2018-07-01T05:10:23.899Z,1.53
2018-07-01T05:12:51.678Z,1.30
2018-07-01T05:15:19.402Z,1.67
2018-07-01T05:17:47.155Z,0.97
2018-07-01T05:20:17.240Z,1.43
2018-07-01T05:22:45.006Z,1.27
2018-07-01T05:25:12.792Z,1.60
2018-07-01T05:27:40.625Z,1.60
2018-07-01T05:30:08.400Z,1.70
2018-07-01T05:32:36.224Z,1.57
2018-07-01T05:35:04.014Z,1.47
2018-07-01T05:37:31.734Z,1.53
2018-07-01T05:39:59.429Z,1.50
2018-07-01T05:42:27.241Z,1.70
2018-07-01T05:44:54.979Z,1.93
2018-07-01T05:47:22.741Z,1.63
2018-07-01T05:49:50.507Z,1.30
2018-07-01T05:52:18.165Z,1.43
2018-07-01T05:54:46.054Z,1.20
2018-07-01T05:57:13.806Z,1.57
2018-07-01T05:59:41.577Z,1.30
2018-07-01T06:02:09.485Z,1.33
2018-07-01T06:04:37.293Z,1.53
2018-07-01T06:07:05.416Z,1.87
2018-07-01T06:09:33.132Z,1.37
2018-07-01T06:12:00.884Z,1.50
2018-07-01T06:14:28.847Z,1.70
2018-07-01T06:16:56.633Z,1.80
2018-07-01T06:19:24.347Z,1.53
2018-07-01T06:21:52.149Z,1.57
2018-07-01T06:24:19.866Z,2.23
2018-07-01T06:26:47.601Z,1.90
2018-07-01T06:29:15.362Z,1.53
2018-07-01T06:31:43.051Z,1.70
2018-07-01T06:34:10.861Z,1.63
2018-07-01T06:36:38.526Z,1.80
2018-07-01T06:39:07.769Z,1.17
2018-07-01T06:41:35.480Z,1.20
2018-07-01T06:44:03.277Z,1.10
2018-07-01T06:46:30.987Z,1.60
2018-07-01T06:48:58.761Z,1.10
2018-07-01T06:51:26.778Z,1.40
2018-07-01T06:53:54.493Z,1.30
2018-07-01T06:56:22.479Z,0.90
2018-07-01T06:58:50.197Z,1.40
2018-07-01T07:01:17.918Z,1.23
2018-07-01T07:03:45.760Z,1.17
2018-07-01T07:06:13.515Z,1.00
2018-07-01T07:08:41.361Z,1.10
2018-07-01T07:11:09.111Z,0.97
2018-07-01T07:13:36.813Z,0.87
2018-07-01T07:16:04.688Z,0.90
2018-07-01T07:18:32.443Z,1.17
2018-07-01T07:21:00.158Z,1.10
2018-07-01T07:23:27.858Z,1.47
2018-07-01T07:25:55.758Z,1.30
2018-07-01T07:28:23.487Z,1.37
2018-07-01T07:30:51.253Z,1.17
2018-07-01T07:33:18.977Z,1.50
2018-07-01T07:35:46.660Z,1.27
2018-07-01T07:38:14.422Z,1.40
2018-07-01T07:40:42.217Z,1.10
2018-07-01T07:43:09.981Z,1.10
2018-07-01T07:45:37.749Z,0.90
2018-07-01T07:48:05.581Z,1.30
2018-07-01T07:50:33.358Z,0.93
2018-07-01T07:53:01.049Z,1.37
2018-07-01T07:55:28.725Z,1.10
2018-07-01T07:57:56.534Z,1.30
2018-07-01T08:02:58.706Z,1.27
2018-07-01T08:05:26.418Z,0.97
2018-07-01T08:08:05.964Z,1.20
2018-07-01T08:10:33.834Z,0.90
2018-07-01T08:13:01.638Z,1.10
2018-07-01T08:15:33.590Z,1.10
2018-07-01T08:18:01.436Z,1.23
2018-07-01T08:20:29.193Z,1.30
2018-07-01T08:22:57.026Z,1.30
2018-07-01T08:25:25.031Z,1.10
2018-07-01T08:27:52.756Z,1.00
2018-07-01T08:30:20.639Z,1.17
2018-07-01T08:32:48.381Z,1.20
2018-07-01T08:35:16.221Z,1.10
2018-07-01T08:37:47.534Z,0.80
2018-07-01T08:40:15.603Z,0.83
2018-07-01T08:42:43.254Z,0.90
2018-07-01T08:45:11.422Z,1.17
2018-07-01T08:47:39.248Z,1.20
2018-07-01T08:50:07.455Z,1.17
2018-07-01T08:52:35.254Z,1.10
2018-07-01T08:55:03.825Z,1.30
2018-07-01T08:57:31.613Z,1.00
2018-07-01T08:59:59.526Z,1.13
2018-07-01T09:02:27.306Z,1.10
2018-07-01T09:04:55.649Z,1.30
2018-07-01T09:07:23.562Z,1.00
2018-07-01T09:09:51.664Z,1.00
2018-07-01T09:12:19.446Z,1.10
2018-07-01T09:14:47.158Z,1.10
2018-07-01T09:17:15.110Z,1.30
2018-07-01T09:19:42.824Z,1.30
2018-07-01T09:22:10.693Z,1.30
2018-07-01T09:24:38.414Z,1.10
2018-07-01T09:27:06.147Z,1.20
2018-07-01T09:29:33.987Z,1.07
2018-07-01T09:32:01.785Z,1.17
2018-07-01T09:34:30.054Z,1.27
2018-07-01T09:36:58.188Z,0.83
2018-07-01T09:39:26.137Z,1.50
2018-07-01T09:41:55.023Z,1.20
2018-07-01T09:44:23.717Z,1.00
2018-07-01T09:46:55.978Z,1.20
2018-07-01T09:49:24.006Z,1.00
2018-07-01T09:51:55.517Z,1.20
2018-07-01T09:54:23.298Z,0.90
2018-07-01T09:57:00.038Z,1.20
2018-07-01T09:59:28.629Z,1.10
2018-07-01T10:01:56.505Z,1.00
2018-07-01T10:04:24.214Z,1.20
2018-07-01T10:06:51.979Z,1.20
2018-07-01T10:09:19.861Z,1.30
2018-07-01T10:11:47.609Z,1.13
2018-07-01T10:14:15.368Z,1.03
2018-07-01T10:16:43.110Z,1.20
2018-07-01T10:19:10.901Z,1.20
2018-07-01T10:21:38.464Z,1.40
2018-07-01T10:24:06.391Z,1.23
2018-07-01T10:26:34.645Z,1.53
2018-07-01T10:29:10.906Z,1.30
2018-07-01T10:31:39.429Z,1.20
2018-07-01T10:34:08.294Z,1.00
2018-07-01T10:36:36.115Z,1.40
2018-07-01T10:39:11.397Z,1.27
2018-07-01T10:41:39.148Z,1.30
2018-07-01T10:44:06.972Z,1.00
2018-07-01T10:46:34.745Z,1.30
2018-07-01T10:49:02.525Z,1.13
2018-07-01T10:51:30.374Z,1.43
2018-07-01T10:53:58.213Z,1.13
2018-07-01T10:56:26.127Z,1.17
2018-07-01T10:58:53.973Z,1.17
2018-07-01T11:01:22.819Z,1.07
2018-07-01T11:03:50.569Z,1.20
2018-07-01T11:06:18.495Z,1.40
2018-07-01T11:11:39.398Z,1.10
2018-07-01T11:14:07.161Z,1.07
2018-07-01T11:16:34.953Z,1.00
2018-07-01T11:19:02.722Z,1.10
2018-07-01T11:21:30.593Z,1.10
2018-07-01T11:24:21.495Z,1.00
2018-07-01T11:26:49.336Z,1.10
2018-07-01T11:29:16.961Z,1.00
2018-07-01T11:31:44.789Z,0.90
2018-07-01T11:34:16.811Z,1.27
2018-07-01T11:36:44.555Z,1.27
2018-07-01T11:39:12.421Z,1.10
2018-07-01T11:41:40.344Z,1.30
2018-07-01T11:44:08.157Z,1.10
2018-07-01T11:46:35.890Z,1.20
2018-07-01T11:49:03.681Z,0.93
2018-07-01T11:51:31.970Z,1.40
2018-07-01T11:54:09.173Z,1.30
2018-07-01T11:56:36.997Z,1.25
2018-07-01T11:59:04.821Z,1.10
2018-07-01T12:01:32.664Z,1.23
2018-07-01T12:04:00.510Z,1.00
2018-07-01T12:06:28.309Z,0.90
2018-07-01T12:08:56.235Z,1.10
2018-07-01T12:11:24.078Z,1.20
2018-07-01T12:13:51.890Z,1.13
2018-07-01T12:16:20.395Z,1.13
2018-07-01T12:18:48.314Z,1.23
2018-07-01T12:21:16.524Z,1.10
2018-07-01T12:23:44.528Z,1.13
2018-07-01T12:26:31.594Z,1.07
2018-07-01T12:28:59.938Z,1.47
2018-07-01T12:31:27.666Z,1.03
2018-07-01T12:33:55.425Z,1.50
2018-07-01T12:36:23.174Z,1.43
2018-07-01T12:38:50.922Z,1.10
2018-07-01T12:41:18.693Z,1.13
2018-07-01T12:43:46.774Z,0.90
2018-07-01T12:46:14.661Z,0.90
2018-07-01T12:48:42.554Z,1.13
2018-07-01T12:51:10.350Z,1.13
2018-07-01T12:53:38.141Z,1.10
2018-07-01T12:56:05.975Z,1.07
2018-07-01T12:58:33.668Z,1.07
2018-07-01T13:01:01.559Z,1.40
2018-07-01T13:03:30.149Z,1.50
2018-07-01T13:05:58.178Z,1.20
2018-07-01T13:08:25.944Z,1.40
2018-07-01T13:10:53.712Z,1.20
2018-07-01T13:13:21.516Z,1.20
2018-07-01T13:15:49.545Z,1.00
2018-07-01T13:18:17.352Z,1.20
2018-07-01T13:20:45.078Z,1.13
2018-07-01T13:23:12.913Z,1.03
2018-07-01T13:25:40.654Z,1.20
2018-07-01T13:28:08.590Z,0.87
2018-07-01T13:30:36.355Z,1.07
2018-07-01T13:33:04.278Z,1.17
2018-07-01T13:35:32.212Z,1.00
2018-07-01T13:37:59.901Z,0.83
2018-07-01T13:40:27.668Z,0.90
2018-07-01T13:42:55.549Z,1.10
2018-07-01T13:45:23.313Z,1.10
2018-07-01T13:47:51.023Z,1.30
2018-07-01T13:50:18.811Z,1.20
2018-07-01T13:52:46.590Z,0.97
2018-07-01T13:55:14.393Z,1.00
2018-07-01T13:57:42.321Z,1.13
2018-07-01T14:00:10.363Z,0.87
2018-07-01T14:02:38.093Z,0.83
2018-07-01T14:05:05.899Z,1.60
2018-07-01T14:07:33.739Z,1.00
2018-07-01T14:10:01.578Z,1.00
2018-07-01T14:12:29.290Z,1.10
2018-07-01T14:14:57.039Z,0.97
2018-07-01T14:17:24.774Z,1.10
2018-07-01T14:19:52.557Z,1.00
2018-07-01T14:22:20.341Z,0.80
2018-07-01T14:24:48.031Z,1.30
2018-07-01T14:27:15.893Z,0.93
2018-07-01T14:29:45.071Z,1.17
2018-07-01T14:32:12.828Z,0.80
2018-07-01T14:34:40.803Z,1.27
2018-07-01T14:37:08.625Z,0.93
2018-07-01T14:39:36.337Z,1.00
2018-07-01T14:42:06.089Z,1.00
2018-07-01T14:44:33.955Z,1.13
2018-07-01T14:47:01.738Z,1.07
2018-07-01T14:49:29.484Z,1.40
2018-07-01T14:51:57.286Z,1.13
2018-07-01T14:54:25.090Z,1.07
2018-07-01T14:56:52.832Z,1.20
2018-07-01T14:59:20.613Z,1.20
2018-07-01T15:01:48.461Z,1.20
2018-07-01T15:04:16.447Z,1.00
2018-07-01T15:06:44.306Z,1.17
2018-07-01T15:09:12.249Z,1.00
2018-07-01T15:11:40.512Z,1.07
2018-07-01T15:14:08.595Z,1.27
2018-07-01T15:16:36.631Z,1.17
2018-07-01T15:19:04.666Z,1.20
2018-07-01T15:21:32.541Z,1.20
2018-07-01T15:24:00.286Z,1.00
2018-07-01T15:26:28.074Z,1.23
2018-07-01T15:28:55.820Z,1.13
2018-07-01T15:31:23.572Z,1.27
2018-07-01T15:33:51.272Z,1.33
2018-07-01T15:36:19.094Z,0.90
2018-07-01T15:38:46.892Z,0.97
2018-07-01T15:41:14.666Z,1.00
2018-07-01T15:43:42.425Z,1.30
2018-07-01T15:46:10.364Z,1.30
2018-07-01T15:48:38.131Z,1.37
2018-07-01T15:51:06.229Z,1.13
2018-07-01T15:53:34.069Z,1.30
2018-07-01T15:56:01.961Z,1.20
2018-07-01T15:58:29.898Z,1.10
2018-07-01T16:00:57.819Z,1.20
2018-07-01T16:03:25.801Z,1.40
2018-07-01T16:05:53.701Z,1.37
2018-07-01T16:08:21.493Z,1.30
2018-07-01T16:10:49.267Z,1.30
2018-07-01T16:13:17.136Z,1.20
2018-07-01T16:15:45.014Z,1.47
2018-07-01T16:18:12.821Z,1.53
2018-07-01T16:20:40.645Z,1.10
2018-07-01T16:23:08.381Z,1.60
2018-07-01T16:25:37.715Z,1.20
2018-07-01T16:28:11.251Z,1.87
2018-07-01T16:30:39.168Z,1.43
2018-07-01T16:33:07.004Z,1.20
2018-07-01T16:35:35.587Z,1.50
2018-07-01T16:38:03.361Z,1.60
2018-07-01T16:40:31.106Z,1.50
2018-07-01T16:42:58.851Z,1.50
2018-07-01T16:45:26.637Z,1.40
2018-07-01T16:47:54.407Z,1.20
2018-07-01T16:50:22.166Z,1.40
2018-07-01T16:55:42.985Z,1.47
2018-07-01T16:58:10.754Z,1.20
2018-07-01T17:00:38.630Z,1.80
2018-07-01T17:03:06.426Z,1.70
2018-07-01T17:05:34.415Z,1.30
2018-07-01T17:08:02.129Z,1.47
2018-07-01T17:10:29.922Z,1.50
2018-07-01T17:15:31.601Z,1.53
2018-07-01T17:17:59.326Z,1.50
2018-07-01T17:20:27.082Z,1.53
2018-07-01T17:22:54.992Z,1.50
2018-07-01T17:25:22.754Z,1.53
2018-07-01T17:27:50.577Z,1.50
2018-07-01T17:30:18.377Z,1.30
2018-07-01T17:32:51.923Z,1.60
2018-07-01T17:35:19.771Z,1.63
2018-07-01T17:37:47.594Z,1.20
2018-07-01T17:40:19.547Z,1.33
2018-07-01T17:42:47.409Z,1.40
2018-07-01T17:45:15.250Z,1.90
2018-07-01T17:47:43.115Z,1.77
2018-07-01T17:50:10.895Z,2.00
2018-07-01T17:52:38.662Z,1.40
2018-07-01T17:55:06.584Z,1.30
2018-07-01T17:57:34.341Z,1.60
2018-07-01T18:00:02.341Z,1.90
2018-07-01T18:02:30.191Z,1.73
2018-07-01T18:04:58.042Z,1.63
2018-07-01T18:07:25.841Z,1.73
2018-07-01T18:09:53.650Z,1.47
2018-07-01T18:12:21.375Z,1.77
2018-07-01T18:14:49.171Z,1.80
2018-07-01T18:17:16.919Z,1.63
2018-07-01T18:19:44.727Z,1.40
2018-07-01T18:22:14.824Z,1.50
2018-07-01T18:24:58.067Z,1.47
2018-07-01T18:27:09.626Z,1.80
2018-07-01T18:29:37.862Z,1.40
2018-07-01T18:32:05.898Z,1.57
2018-07-01T18:34:33.797Z,1.60
2018-07-01T18:37:01.430Z,1.60
2018-07-01T18:39:29.281Z,1.60
2018-07-01T18:41:57.214Z,2.00
2018-07-01T18:44:25.053Z,1.50
2018-07-01T18:46:52.840Z,1.70
2018-07-01T18:49:20.603Z,1.10
2018-07-01T18:51:48.514Z,1.60
2018-07-01T18:54:17.551Z,1.50
2018-07-01T18:56:45.402Z,1.50
2018-07-01T18:59:13.199Z,1.90
2018-07-01T19:01:41.204Z,1.70
2018-07-01T19:04:08.981Z,2.00
2018-07-01T19:06:36.763Z,1.70
2018-07-01T19:09:06.989Z,1.70
2018-07-01T19:11:34.835Z,1.60
2018-07-01T19:14:02.633Z,1.90
2018-07-01T19:16:30.349Z,1.70
2018-07-01T19:18:58.229Z,1.70
2018-07-01T19:21:26.061Z,2.00
2018-07-01T19:23:53.848Z,1.67
2018-07-01T19:26:21.683Z,1.93
2018-07-01T19:28:49.466Z,1.70
2018-07-01T19:31:17.278Z,1.40
2018-07-01T19:33:45.044Z,1.87
2018-07-01T19:36:12.894Z,1.50
2018-07-01T19:38:40.627Z,1.57
2018-07-01T19:41:08.456Z,2.13
2018-07-01T19:43:36.577Z,1.60
2018-07-01T19:46:04.489Z,2.10
2018-07-01T19:48:32.598Z,1.73
2018-07-01T19:51:00.540Z,1.73
2018-07-01T19:53:28.376Z,1.73
2018-07-01T19:55:56.107Z,2.03
2018-07-01T19:58:23.960Z,1.90
2018-07-01T20:00:51.761Z,2.30
2018-07-01T20:03:19.548Z,2.27
2018-07-01T20:05:47.299Z,1.80
2018-07-01T20:08:15.160Z,2.00
2018-07-01T20:10:43.204Z,1.80
2018-07-01T20:13:11.143Z,2.00
2018-07-01T20:15:38.942Z,2.50
2018-07-01T20:18:07.868Z,2.23
2018-07-01T20:20:35.579Z,2.67
2018-07-01T20:23:03.456Z,2.37
2018-07-01T20:25:32.150Z,2.13
2018-07-01T20:27:59.927Z,2.27
2018-07-01T20:30:27.708Z,2.10
2018-07-01T20:32:55.548Z,2.57
2018-07-01T20:35:23.324Z,2.87
2018-07-01T20:37:51.071Z,2.33
2018-07-01T20:40:18.900Z,3.10
2018-07-01T20:42:46.670Z,2.77
2018-07-01T20:45:15.125Z,3.30
2018-07-01T20:47:42.747Z,3.23
2018-07-01T20:50:10.977Z,2.50
2018-07-01T20:52:38.730Z,2.53
2018-07-01T20:55:06.541Z,2.40
2018-07-01T20:57:34.327Z,2.70
2018-07-01T21:00:02.300Z,2.33
2018-07-01T21:02:30.068Z,2.33
2018-07-01T21:04:57.905Z,2.30
2018-07-01T21:07:25.630Z,2.33
2018-07-01T21:09:53.681Z,2.50
2018-07-01T21:12:21.377Z,2.30
2018-07-01T21:14:49.151Z,2.50
2018-07-01T21:17:16.981Z,2.80
2018-07-01T21:19:44.857Z,3.20
2018-07-01T21:22:12.629Z,3.03
2018-07-01T21:24:40.434Z,2.60
2018-07-01T21:27:08.245Z,2.90
2018-07-01T21:29:36.060Z,3.10
2018-07-01T21:32:04.043Z,2.57
2018-07-01T21:34:31.702Z,2.67
2018-07-01T21:36:59.530Z,3.20
2018-07-01T21:39:27.254Z,3.00
2018-07-01T21:41:54.991Z,2.90
2018-07-01T21:44:22.817Z,2.90
2018-07-01T21:46:50.583Z,2.67
2018-07-01T21:49:18.331Z,2.67
2018-07-01T21:51:46.123Z,2.83
2018-07-01T21:54:13.927Z,2.70
2018-07-01T21:56:41.509Z,2.33
2018-07-01T21:59:09.314Z,2.40
2018-07-01T22:01:37.107Z,2.20
2018-07-01T22:04:04.898Z,2.67
2018-07-01T22:06:38.242Z,2.20
2018-07-01T22:09:06.987Z,2.20
2018-07-01T22:11:47.522Z,2.10
2018-07-01T22:14:26.795Z,2.10
2018-07-01T22:16:54.596Z,2.70
2018-07-01T22:19:22.616Z,2.10
2018-07-01T22:21:51.392Z,2.20
2018-07-01T22:24:19.273Z,1.90
2018-07-01T22:26:47.165Z,1.67
2018-07-01T22:29:15.969Z,1.90
2018-07-01T22:31:43.750Z,1.97
2018-07-01T22:34:12.647Z,2.00
2018-07-01T22:36:41.106Z,2.07
2018-07-01T22:39:13.633Z,2.00
2018-07-01T22:41:42.109Z,2.03
2018-07-01T22:44:09.866Z,1.87
2018-07-01T22:46:38.988Z,1.60
2018-07-01T22:49:06.822Z,1.83
2018-07-01T22:51:34.802Z,1.57
2018-07-01T22:54:03.038Z,1.60
2018-07-01T22:56:31.436Z,1.97
2018-07-01T22:58:59.233Z,1.90
2018-07-01T23:01:27.219Z,1.77
2018-07-01T23:03:55.206Z,1.70
2018-07-01T23:06:23.186Z,1.50
2018-07-01T23:08:50.953Z,1.70
2018-07-01T23:11:18.662Z,1.70
2018-07-01T23:13:46.462Z,1.70
2018-07-01T23:16:14.178Z,1.47
2018-07-01T23:18:42.043Z,1.80
2018-07-01T23:21:09.817Z,1.83
2018-07-01T23:23:37.709Z,1.50
2018-07-01T23:26:05.821Z,1.30
2018-07-01T23:28:33.605Z,1.47
2018-07-01T23:31:02.749Z,1.30
2018-07-01T23:33:30.581Z,1.10
2018-07-01T23:35:58.323Z,1.50
2018-07-01T23:38:26.048Z,1.50
2018-07-01T23:40:53.878Z,1.70
2018-07-01T23:43:21.917Z,1.40
2018-07-01T23:45:49.721Z,1.37
2018-07-01T23:48:17.498Z,1.40
2018-07-01T23:50:45.262Z,1.20
2018-07-01T23:53:13.043Z,1.10
2018-07-01T23:55:40.870Z,1.50
2018-07-01T23:58:08.757Z,1.30
